sensor_id;sensor_type;location;lat;lon;timestamp;P1;durP1;ratioP1;P2;durP2;ratioP2
7116;SDS011;3600;48.568;7.870;2024-02-21T00:02:25;9.80;;;4.07;;
7116;SDS011;3600;48.568;7.870;2024-02-21T00:04:52;6.30;;;3.93;;
7116;SDS011;3600;48.568;7.870;2024-02-21T00:07:19;9.70;;;4.03;;
7116;SDS011;3600;48.568;7.870;2024-02-21T00:09:46;7.57;;;3.97;;
7116;SDS011;3600;48.568;7.870;2024-02-21T00:12:13;8.77;;;3.73;;
7116;SDS011;3600;48.568;7.870;2024-02-21T00:14:40;6.97;;;3.93;;
7116;SDS011;3600;48.568;7.870;2024-02-21T00:17:06;10.40;;;4.20;;
7116;SDS011;3600;48.568;7.870;2024-02-21T00:19:34;7.63;;;3.57;;
7116;SDS011;3600;48.568;7.870;2024-02-21T00:22:02;6.07;;;4.10;;
7116;SDS011;3600;48.568;7.870;2024-02-21T00:24:30;7.43;;;3.90;;
7116;SDS011;3600;48.568;7.870;2024-02-21T00:26:57;6.03;;;3.47;;
7116;SDS011;3600;48.568;7.870;2024-02-21T00:29:23;6.03;;;4.07;;
7116;SDS011;3600;48.568;7.870;2024-02-21T00:31:50;7.30;;;3.37;;
7116;SDS011;3600;48.568;7.870;2024-02-21T00:34:17;6.80;;;3.53;;
7116;SDS011;3600;48.568;7.870;2024-02-21T00:36:45;6.90;;;3.40;;
7116;SDS011;3600;48.568;7.870;2024-02-21T00:39:11;6.20;;;3.30;;
7116;SDS011;3600;48.568;7.870;2024-02-21T00:41:38;7.33;;;3.73;;
7116;SDS011;3600;48.568;7.870;2024-02-21T00:44:05;6.40;;;3.37;;
7116;SDS011;3600;48.568;7.870;2024-02-21T00:46:32;7.63;;;3.47;;
7116;SDS011;3600;48.568;7.870;2024-02-21T00:48:59;7.73;;;3.47;;
7116;SDS011;3600;48.568;7.870;2024-02-21T00:51:26;6.90;;;3.63;;
7116;SDS011;3600;48.568;7.870;2024-02-21T00:53:53;6.60;;;3.57;;
7116;SDS011;3600;48.568;7.870;2024-02-21T00:56:19;8.53;;;3.70;;
7116;SDS011;3600;48.568;7.870;2024-02-21T00:58:46;6.33;;;3.30;;
7116;SDS011;3600;48.568;7.870;2024-02-21T01:01:13;6.20;;;3.27;;
7116;SDS011;3600;48.568;7.870;2024-02-21T01:03:48;6.43;;;3.13;;
7116;SDS011;3600;48.568;7.870;2024-02-21T01:06:15;9.57;;;3.63;;
7116;SDS011;3600;48.568;7.870;2024-02-21T01:08:42;6.87;;;3.40;;
7116;SDS011;3600;48.568;7.870;2024-02-21T01:11:09;5.33;;;3.43;;
7116;SDS011;3600;48.568;7.870;2024-02-21T01:13:36;4.33;;;2.73;;
7116;SDS011;3600;48.568;7.870;2024-02-21T01:16:03;4.73;;;3.03;;
7116;SDS011;3600;48.568;7.870;2024-02-21T01:18:30;4.93;;;3.37;;
7116;SDS011;3600;48.568;7.870;2024-02-21T01:20:57;6.70;;;3.27;;
7116;SDS011;3600;48.568;7.870;2024-02-21T01:23:25;5.63;;;3.47;;
7116;SDS011;3600;48.568;7.870;2024-02-21T01:25:52;6.37;;;3.30;;
7116;SDS011;3600;48.568;7.870;2024-02-21T01:28:19;4.67;;;3.00;;
7116;SDS011;3600;48.568;7.870;2024-02-21T01:30:48;9.50;;;3.47;;
7116;SDS011;3600;48.568;7.870;2024-02-21T01:33:15;5.30;;;3.43;;
7116;SDS011;3600;48.568;7.870;2024-02-21T01:35:42;5.23;;;3.73;;
7116;SDS011;3600;48.568;7.870;2024-02-21T01:38:09;7.13;;;3.63;;
7116;SDS011;3600;48.568;7.870;2024-02-21T01:40:36;3.40;;;3.00;;
7116;SDS011;3600;48.568;7.870;2024-02-21T01:43:04;7.10;;;3.70;;
7116;SDS011;3600;48.568;7.870;2024-02-21T01:45:42;7.40;;;3.60;;
7116;SDS011;3600;48.568;7.870;2024-02-21T01:48:09;6.80;;;3.57;;
7116;SDS011;3600;48.568;7.870;2024-02-21T01:50:36;3.77;;;3.27;;
7116;SDS011;3600;48.568;7.870;2024-02-21T01:53:03;6.27;;;3.30;;
7116;SDS011;3600;48.568;7.870;2024-02-21T01:55:30;5.00;;;3.37;;
7116;SDS011;3600;48.568;7.870;2024-02-21T01:57:57;8.03;;;4.07;;
7116;SDS011;3600;48.568;7.870;2024-02-21T02:00:24;5.53;;;3.53;;
7116;SDS011;3600;48.568;7.870;2024-02-21T02:02:51;4.93;;;3.30;;
7116;SDS011;3600;48.568;7.870;2024-02-21T02:05:18;4.43;;;3.33;;
7116;SDS011;3600;48.568;7.870;2024-02-21T02:07:47;6.53;;;3.73;;
7116;SDS011;3600;48.568;7.870;2024-02-21T02:10:14;6.13;;;4.53;;
7116;SDS011;3600;48.568;7.870;2024-02-21T02:12:41;8.87;;;3.87;;
7116;SDS011;3600;48.568;7.870;2024-02-21T02:15:08;6.80;;;2.93;;
7116;SDS011;3600;48.568;7.870;2024-02-21T02:17:34;5.30;;;3.30;;
7116;SDS011;3600;48.568;7.870;2024-02-21T02:20:01;7.43;;;3.50;;
7116;SDS011;3600;48.568;7.870;2024-02-21T02:22:29;5.73;;;3.03;;
7116;SDS011;3600;48.568;7.870;2024-02-21T02:24:58;8.83;;;3.40;;
7116;SDS011;3600;48.568;7.870;2024-02-21T02:27:25;7.60;;;2.97;;
7116;SDS011;3600;48.568;7.870;2024-02-21T02:29:52;4.27;;;2.87;;
7116;SDS011;3600;48.568;7.870;2024-02-21T02:32:19;7.00;;;3.50;;
7116;SDS011;3600;48.568;7.870;2024-02-21T02:34:46;5.57;;;3.27;;
7116;SDS011;3600;48.568;7.870;2024-02-21T02:37:12;8.00;;;4.37;;
7116;SDS011;3600;48.568;7.870;2024-02-21T02:39:39;8.07;;;3.90;;
7116;SDS011;3600;48.568;7.870;2024-02-21T02:42:06;5.40;;;3.47;;
7116;SDS011;3600;48.568;7.870;2024-02-21T02:44:33;5.23;;;3.90;;
7116;SDS011;3600;48.568;7.870;2024-02-21T02:46:59;5.13;;;3.23;;
7116;SDS011;3600;48.568;7.870;2024-02-21T02:49:26;8.27;;;3.97;;
7116;SDS011;3600;48.568;7.870;2024-02-21T02:51:53;5.60;;;3.50;;
7116;SDS011;3600;48.568;7.870;2024-02-21T02:54:20;5.17;;;3.10;;
7116;SDS011;3600;48.568;7.870;2024-02-21T02:56:47;7.80;;;3.57;;
7116;SDS011;3600;48.568;7.870;2024-02-21T02:59:15;3.40;;;3.10;;
7116;SDS011;3600;48.568;7.870;2024-02-21T03:01:45;5.67;;;3.23;;
7116;SDS011;3600;48.568;7.870;2024-02-21T03:04:15;5.63;;;3.43;;
7116;SDS011;3600;48.568;7.870;2024-02-21T03:06:42;6.10;;;3.40;;
7116;SDS011;3600;48.568;7.870;2024-02-21T03:09:09;7.43;;;4.00;;
7116;SDS011;3600;48.568;7.870;2024-02-21T03:11:36;6.47;;;3.80;;
7116;SDS011;3600;48.568;7.870;2024-02-21T03:14:04;8.47;;;3.87;;
7116;SDS011;3600;48.568;7.870;2024-02-21T03:16:31;7.33;;;3.37;;
7116;SDS011;3600;48.568;7.870;2024-02-21T03:18:58;4.87;;;2.83;;
7116;SDS011;3600;48.568;7.870;2024-02-21T03:21:24;7.30;;;3.27;;
7116;SDS011;3600;48.568;7.870;2024-02-21T03:23:51;7.83;;;3.57;;
7116;SDS011;3600;48.568;7.870;2024-02-21T03:26:18;5.23;;;3.47;;
7116;SDS011;3600;48.568;7.870;2024-02-21T03:28:45;4.67;;;3.47;;
7116;SDS011;3600;48.568;7.870;2024-02-21T03:31:13;5.90;;;3.30;;
7116;SDS011;3600;48.568;7.870;2024-02-21T03:33:41;5.67;;;2.87;;
7116;SDS011;3600;48.568;7.870;2024-02-21T03:36:14;9.87;;;3.50;;
7116;SDS011;3600;48.568;7.870;2024-02-21T03:38:42;4.57;;;3.60;;
7116;SDS011;3600;48.568;7.870;2024-02-21T03:41:08;4.13;;;2.83;;
7116;SDS011;3600;48.568;7.870;2024-02-21T03:43:37;4.47;;;2.70;;
7116;SDS011;3600;48.568;7.870;2024-02-21T03:46:05;5.60;;;3.63;;
7116;SDS011;3600;48.568;7.870;2024-02-21T03:48:33;6.73;;;3.30;;
7116;SDS011;3600;48.568;7.870;2024-02-21T03:50:59;8.43;;;3.30;;
7116;SDS011;3600;48.568;7.870;2024-02-21T03:53:26;6.17;;;3.90;;
7116;SDS011;3600;48.568;7.870;2024-02-21T03:55:54;7.40;;;3.13;;
7116;SDS011;3600;48.568;7.870;2024-02-21T03:58:21;5.83;;;3.50;;
7116;SDS011;3600;48.568;7.870;2024-02-21T04:00:48;5.17;;;3.43;;
7116;SDS011;3600;48.568;7.870;2024-02-21T04:03:15;3.87;;;3.00;;
7116;SDS011;3600;48.568;7.870;2024-02-21T04:05:42;7.73;;;3.90;;
7116;SDS011;3600;48.568;7.870;2024-02-21T04:08:09;6.30;;;3.53;;
7116;SDS011;3600;48.568;7.870;2024-02-21T04:10:36;6.30;;;3.27;;
7116;SDS011;3600;48.568;7.870;2024-02-21T04:13:04;5.27;;;2.97;;
7116;SDS011;3600;48.568;7.870;2024-02-21T04:15:32;5.53;;;3.10;;
7116;SDS011;3600;48.568;7.870;2024-02-21T04:17:59;8.80;;;3.63;;
7116;SDS011;3600;48.568;7.870;2024-02-21T04:20:26;4.00;;;3.60;;
7116;SDS011;3600;48.568;7.870;2024-02-21T04:22:53;5.90;;;3.00;;
7116;SDS011;3600;48.568;7.870;2024-02-21T04:25:20;7.60;;;3.40;;
7116;SDS011;3600;48.568;7.870;2024-02-21T04:27:47;7.70;;;4.20;;
7116;SDS011;3600;48.568;7.870;2024-02-21T04:30:14;5.97;;;3.40;;
7116;SDS011;3600;48.568;7.870;2024-02-21T04:32:41;6.03;;;3.77;;
7116;SDS011;3600;48.568;7.870;2024-02-21T04:35:08;10.10;;;3.80;;
7116;SDS011;3600;48.568;7.870;2024-02-21T04:37:35;5.20;;;3.20;;
7116;SDS011;3600;48.568;7.870;2024-02-21T04:40:02;7.57;;;3.30;;
7116;SDS011;3600;48.568;7.870;2024-02-21T04:42:29;6.07;;;3.10;;
7116;SDS011;3600;48.568;7.870;2024-02-21T04:44:56;5.60;;;3.27;;
7116;SDS011;3600;48.568;7.870;2024-02-21T04:47:23;7.17;;;3.37;;
7116;SDS011;3600;48.568;7.870;2024-02-21T04:49:53;6.27;;;3.50;;
7116;SDS011;3600;48.568;7.870;2024-02-21T04:52:20;9.27;;;4.30;;
7116;SDS011;3600;48.568;7.870;2024-02-21T04:54:46;4.00;;;3.57;;
7116;SDS011;3600;48.568;7.870;2024-02-21T04:57:13;7.90;;;3.43;;
7116;SDS011;3600;48.568;7.870;2024-02-21T04:59:43;6.80;;;3.50;;
7116;SDS011;3600;48.568;7.870;2024-02-21T05:02:11;6.73;;;3.50;;
7116;SDS011;3600;48.568;7.870;2024-02-21T05:04:42;6.37;;;3.33;;
7116;SDS011;3600;48.568;7.870;2024-02-21T05:07:09;7.20;;;3.33;;
7116;SDS011;3600;48.568;7.870;2024-02-21T05:09:38;5.07;;;3.33;;
7116;SDS011;3600;48.568;7.870;2024-02-21T05:12:05;7.80;;;4.03;;
7116;SDS011;3600;48.568;7.870;2024-02-21T05:14:32;5.80;;;3.63;;
7116;SDS011;3600;48.568;7.870;2024-02-21T05:16:58;5.00;;;3.20;;
7116;SDS011;3600;48.568;7.870;2024-02-21T05:19:26;6.53;;;3.50;;
7116;SDS011;3600;48.568;7.870;2024-02-21T05:21:53;5.53;;;2.67;;
7116;SDS011;3600;48.568;7.870;2024-02-21T05:24:19;6.00;;;3.20;;
7116;SDS011;3600;48.568;7.870;2024-02-21T05:26:46;6.77;;;3.43;;
7116;SDS011;3600;48.568;7.870;2024-02-21T05:29:13;8.60;;;2.90;;
7116;SDS011;3600;48.568;7.870;2024-02-21T05:34:19;6.87;;;3.37;;
7116;SDS011;3600;48.568;7.870;2024-02-21T05:36:47;4.87;;;3.10;;
7116;SDS011;3600;48.568;7.870;2024-02-21T05:39:15;5.37;;;3.87;;
7116;SDS011;3600;48.568;7.870;2024-02-21T05:41:43;5.53;;;3.50;;
7116;SDS011;3600;48.568;7.870;2024-02-21T05:44:10;6.17;;;3.90;;
7116;SDS011;3600;48.568;7.870;2024-02-21T05:46:37;4.07;;;3.63;;
7116;SDS011;3600;48.568;7.870;2024-02-21T05:49:04;3.83;;;3.33;;
7116;SDS011;3600;48.568;7.870;2024-02-21T05:51:34;8.43;;;4.57;;
7116;SDS011;3600;48.568;7.870;2024-02-21T05:54:01;5.60;;;3.77;;
7116;SDS011;3600;48.568;7.870;2024-02-21T05:56:29;9.03;;;3.43;;
7116;SDS011;3600;48.568;7.870;2024-02-21T05:58:55;8.70;;;3.57;;
7116;SDS011;3600;48.568;7.870;2024-02-21T06:01:23;9.83;;;3.93;;
7116;SDS011;3600;48.568;7.870;2024-02-21T06:03:50;5.93;;;3.13;;
7116;SDS011;3600;48.568;7.870;2024-02-21T06:06:17;6.27;;;3.60;;
7116;SDS011;3600;48.568;7.870;2024-02-21T06:08:44;4.93;;;3.40;;
7116;SDS011;3600;48.568;7.870;2024-02-21T06:11:11;5.40;;;3.77;;
7116;SDS011;3600;48.568;7.870;2024-02-21T06:13:38;5.90;;;3.90;;
7116;SDS011;3600;48.568;7.870;2024-02-21T06:16:06;3.77;;;3.47;;
7116;SDS011;3600;48.568;7.870;2024-02-21T06:18:34;4.27;;;3.40;;
7116;SDS011;3600;48.568;7.870;2024-02-21T06:21:02;5.67;;;3.80;;
7116;SDS011;3600;48.568;7.870;2024-02-21T06:23:29;8.43;;;4.10;;
7116;SDS011;3600;48.568;7.870;2024-02-21T06:25:56;4.00;;;3.33;;
7116;SDS011;3600;48.568;7.870;2024-02-21T06:28:22;4.47;;;4.00;;
7116;SDS011;3600;48.568;7.870;2024-02-21T06:30:49;5.97;;;4.20;;
7116;SDS011;3600;48.568;7.870;2024-02-21T06:33:16;6.07;;;3.63;;
7116;SDS011;3600;48.568;7.870;2024-02-21T06:35:43;8.20;;;3.87;;
7116;SDS011;3600;48.568;7.870;2024-02-21T06:38:13;5.37;;;3.40;;
7116;SDS011;3600;48.568;7.870;2024-02-21T06:40:42;4.60;;;3.23;;
7116;SDS011;3600;48.568;7.870;2024-02-21T06:43:09;5.37;;;3.53;;
7116;SDS011;3600;48.568;7.870;2024-02-21T06:45:36;7.83;;;4.33;;
7116;SDS011;3600;48.568;7.870;2024-02-21T06:48:02;9.10;;;3.50;;
7116;SDS011;3600;48.568;7.870;2024-02-21T06:50:29;4.60;;;3.10;;
7116;SDS011;3600;48.568;7.870;2024-02-21T06:52:56;3.97;;;3.27;;
7116;SDS011;3600;48.568;7.870;2024-02-21T06:55:23;4.80;;;3.43;;
7116;SDS011;3600;48.568;7.870;2024-02-21T06:57:50;6.40;;;3.30;;
7116;SDS011;3600;48.568;7.870;2024-02-21T07:00:17;7.77;;;3.70;;
7116;SDS011;3600;48.568;7.870;2024-02-21T07:02:46;5.63;;;3.47;;
7116;SDS011;3600;48.568;7.870;2024-02-21T07:05:15;5.57;;;3.30;;
7116;SDS011;3600;48.568;7.870;2024-02-21T07:07:42;5.37;;;3.10;;
7116;SDS011;3600;48.568;7.870;2024-02-21T07:10:09;6.80;;;3.57;;
7116;SDS011;3600;48.568;7.870;2024-02-21T07:12:37;6.57;;;3.63;;
7116;SDS011;3600;48.568;7.870;2024-02-21T07:15:08;7.53;;;3.37;;
7116;SDS011;3600;48.568;7.870;2024-02-21T07:17:35;11.60;;;3.90;;
7116;SDS011;3600;48.568;7.870;2024-02-21T07:20:02;5.03;;;3.50;;
7116;SDS011;3600;48.568;7.870;2024-02-21T07:22:29;6.27;;;3.57;;
7116;SDS011;3600;48.568;7.870;2024-02-21T07:24:56;5.23;;;3.40;;
7116;SDS011;3600;48.568;7.870;2024-02-21T07:27:23;6.00;;;2.97;;
7116;SDS011;3600;48.568;7.870;2024-02-21T07:30:00;7.23;;;3.20;;
7116;SDS011;3600;48.568;7.870;2024-02-21T07:32:27;6.50;;;3.43;;
7116;SDS011;3600;48.568;7.870;2024-02-21T07:34:54;5.20;;;3.27;;
7116;SDS011;3600;48.568;7.870;2024-02-21T07:37:21;5.57;;;3.63;;
7116;SDS011;3600;48.568;7.870;2024-02-21T07:39:48;7.70;;;3.90;;
7116;SDS011;3600;48.568;7.870;2024-02-21T07:42:15;5.20;;;3.60;;
7116;SDS011;3600;48.568;7.870;2024-02-21T07:44:42;10.40;;;3.87;;
7116;SDS011;3600;48.568;7.870;2024-02-21T07:47:09;8.07;;;3.53;;
7116;SDS011;3600;48.568;7.870;2024-02-21T07:49:45;4.73;;;3.87;;
7116;SDS011;3600;48.568;7.870;2024-02-21T07:52:12;4.20;;;3.80;;
7116;SDS011;3600;48.568;7.870;2024-02-21T07:54:40;3.70;;;3.37;;
7116;SDS011;3600;48.568;7.870;2024-02-21T07:57:07;6.27;;;3.00;;
7116;SDS011;3600;48.568;7.870;2024-02-21T07:59:34;5.77;;;3.30;;
7116;SDS011;3600;48.568;7.870;2024-02-21T08:02:01;4.57;;;3.23;;
7116;SDS011;3600;48.568;7.870;2024-02-21T08:04:29;3.87;;;3.07;;
7116;SDS011;3600;48.568;7.870;2024-02-21T08:06:56;6.13;;;3.50;;
7116;SDS011;3600;48.568;7.870;2024-02-21T08:09:31;5.77;;;3.60;;
7116;SDS011;3600;48.568;7.870;2024-02-21T08:11:58;7.63;;;3.90;;
7116;SDS011;3600;48.568;7.870;2024-02-21T08:14:25;7.03;;;3.47;;
7116;SDS011;3600;48.568;7.870;2024-02-21T08:16:52;5.73;;;3.60;;
7116;SDS011;3600;48.568;7.870;2024-02-21T08:19:20;5.50;;;3.50;;
7116;SDS011;3600;48.568;7.870;2024-02-21T08:21:48;4.80;;;3.10;;
7116;SDS011;3600;48.568;7.870;2024-02-21T08:24:15;4.43;;;3.50;;
7116;SDS011;3600;48.568;7.870;2024-02-21T08:26:42;8.47;;;4.10;;
7116;SDS011;3600;48.568;7.870;2024-02-21T08:29:11;6.07;;;4.17;;
7116;SDS011;3600;48.568;7.870;2024-02-21T08:31:38;5.00;;;3.50;;
7116;SDS011;3600;48.568;7.870;2024-02-21T08:34:05;7.87;;;3.60;;
7116;SDS011;3600;48.568;7.870;2024-02-21T08:36:35;7.43;;;3.77;;
7116;SDS011;3600;48.568;7.870;2024-02-21T08:39:03;8.63;;;3.90;;
7116;SDS011;3600;48.568;7.870;2024-02-21T08:41:31;4.57;;;3.97;;
7116;SDS011;3600;48.568;7.870;2024-02-21T08:44:17;5.57;;;3.80;;
7116;SDS011;3600;48.568;7.870;2024-02-21T08:46:44;5.67;;;3.47;;
7116;SDS011;3600;48.568;7.870;2024-02-21T08:49:11;7.10;;;4.17;;
7116;SDS011;3600;48.568;7.870;2024-02-21T08:51:37;5.40;;;3.90;;
7116;SDS011;3600;48.568;7.870;2024-02-21T08:54:04;5.83;;;3.80;;
7116;SDS011;3600;48.568;7.870;2024-02-21T08:56:32;4.50;;;3.40;;
7116;SDS011;3600;48.568;7.870;2024-02-21T08:58:58;6.53;;;4.17;;
7116;SDS011;3600;48.568;7.870;2024-02-21T09:01:26;7.57;;;4.47;;
7116;SDS011;3600;48.568;7.870;2024-02-21T09:03:53;5.63;;;4.00;;
7116;SDS011;3600;48.568;7.870;2024-02-21T09:06:20;8.07;;;4.47;;
7116;SDS011;3600;48.568;7.870;2024-02-21T09:08:48;5.17;;;4.27;;
7116;SDS011;3600;48.568;7.870;2024-02-21T09:11:15;7.57;;;3.97;;
7116;SDS011;3600;48.568;7.870;2024-02-21T09:13:42;6.13;;;4.30;;
7116;SDS011;3600;48.568;7.870;2024-02-21T09:16:09;9.53;;;4.60;;
7116;SDS011;3600;48.568;7.870;2024-02-21T09:18:36;8.67;;;4.53;;
7116;SDS011;3600;48.568;7.870;2024-02-21T09:21:03;6.73;;;4.93;;
7116;SDS011;3600;48.568;7.870;2024-02-21T09:23:30;11.30;;;4.37;;
7116;SDS011;3600;48.568;7.870;2024-02-21T09:25:58;8.53;;;4.80;;
7116;SDS011;3600;48.568;7.870;2024-02-21T09:28:27;8.63;;;4.57;;
7116;SDS011;3600;48.568;7.870;2024-02-21T09:30:54;8.23;;;4.60;;
7116;SDS011;3600;48.568;7.870;2024-02-21T09:33:21;7.37;;;4.27;;
7116;SDS011;3600;48.568;7.870;2024-02-21T09:35:57;7.57;;;4.43;;
7116;SDS011;3600;48.568;7.870;2024-02-21T09:38:24;9.80;;;4.50;;
7116;SDS011;3600;48.568;7.870;2024-02-21T09:43:52;8.00;;;5.00;;
7116;SDS011;3600;48.568;7.870;2024-02-21T09:46:30;7.93;;;4.80;;
7116;SDS011;3600;48.568;7.870;2024-02-21T09:49:34;5.33;;;4.40;;
7116;SDS011;3600;48.568;7.870;2024-02-21T09:52:05;10.67;;;4.77;;
7116;SDS011;3600;48.568;7.870;2024-02-21T09:54:35;7.60;;;4.60;;
7116;SDS011;3600;48.568;7.870;2024-02-21T09:57:03;7.93;;;4.40;;
7116;SDS011;3600;48.568;7.870;2024-02-21T09:59:32;5.67;;;4.60;;
7116;SDS011;3600;48.568;7.870;2024-02-21T10:01:59;6.57;;;4.07;;
7116;SDS011;3600;48.568;7.870;2024-02-21T10:04:27;5.83;;;3.80;;
7116;SDS011;3600;48.568;7.870;2024-02-21T10:06:54;4.67;;;3.80;;
7116;SDS011;3600;48.568;7.870;2024-02-21T10:09:25;6.93;;;4.03;;
7116;SDS011;3600;48.568;7.870;2024-02-21T10:11:55;5.43;;;4.00;;
7116;SDS011;3600;48.568;7.870;2024-02-21T10:14:33;8.80;;;4.30;;
7116;SDS011;3600;48.568;7.870;2024-02-21T10:17:00;5.40;;;3.63;;
7116;SDS011;3600;48.568;7.870;2024-02-21T10:19:27;9.10;;;3.93;;
7116;SDS011;3600;48.568;7.870;2024-02-21T10:22:07;6.87;;;3.43;;
7116;SDS011;3600;48.568;7.870;2024-02-21T10:24:37;5.97;;;3.27;;
7116;SDS011;3600;48.568;7.870;2024-02-21T10:27:05;7.10;;;3.10;;
7116;SDS011;3600;48.568;7.870;2024-02-21T10:29:37;6.10;;;3.07;;
7116;SDS011;3600;48.568;7.870;2024-02-21T10:34:40;7.27;;;3.23;;
7116;SDS011;3600;48.568;7.870;2024-02-21T10:37:09;4.67;;;2.70;;
7116;SDS011;3600;48.568;7.870;2024-02-21T10:39:37;5.37;;;3.07;;
7116;SDS011;3600;48.568;7.870;2024-02-21T10:42:05;3.83;;;3.00;;
7116;SDS011;3600;48.568;7.870;2024-02-21T10:44:37;3.35;;;3.05;;
7116;SDS011;3600;48.568;7.870;2024-02-21T10:47:09;9.32;;;3.13;;
7116;SDS011;3600;48.568;7.870;2024-02-21T10:49:40;5.15;;;3.20;;
7116;SDS011;3600;48.568;7.870;2024-02-21T10:52:15;7.28;;;3.05;;
7116;SDS011;3600;48.568;7.870;2024-02-21T10:54:55;5.30;;;3.00;;
7116;SDS011;3600;48.568;7.870;2024-02-21T10:57:27;8.30;;;2.97;;
7116;SDS011;3600;48.568;7.870;2024-02-21T10:59:55;5.93;;;2.75;;
7116;SDS011;3600;48.568;7.870;2024-02-21T11:02:25;6.38;;;3.35;;
7116;SDS011;3600;48.568;7.870;2024-02-21T11:04:55;5.55;;;2.90;;
7116;SDS011;3600;48.568;7.870;2024-02-21T11:07:22;5.88;;;2.80;;
7116;SDS011;3600;48.568;7.870;2024-02-21T11:09:50;6.55;;;2.83;;
7116;SDS011;3600;48.568;7.870;2024-02-21T11:12:22;7.95;;;2.65;;
7116;SDS011;3600;48.568;7.870;2024-02-21T11:14:50;6.55;;;2.75;;
7116;SDS011;3600;48.568;7.870;2024-02-21T11:17:17;4.68;;;2.85;;
7116;SDS011;3600;48.568;7.870;2024-02-21T11:19:45;6.22;;;2.83;;
7116;SDS011;3600;48.568;7.870;2024-02-21T11:22:16;4.70;;;2.53;;
7116;SDS011;3600;48.568;7.870;2024-02-21T11:24:43;5.22;;;2.92;;
7116;SDS011;3600;48.568;7.870;2024-02-21T11:32:11;5.50;;;2.63;;
7116;SDS011;3600;48.568;7.870;2024-02-21T11:34:41;6.03;;;3.05;;
7116;SDS011;3600;48.568;7.870;2024-02-21T11:37:20;5.18;;;3.75;;
7116;SDS011;3600;48.568;7.870;2024-02-21T11:39:47;4.07;;;3.00;;
7116;SDS011;3600;48.568;7.870;2024-02-21T11:42:16;6.28;;;3.47;;
7116;SDS011;3600;48.568;7.870;2024-02-21T11:44:43;7.03;;;3.45;;
7116;SDS011;3600;48.568;7.870;2024-02-21T11:47:10;5.88;;;3.20;;
7116;SDS011;3600;48.568;7.870;2024-02-21T11:49:46;5.72;;;3.00;;
7116;SDS011;3600;48.568;7.870;2024-02-21T11:52:16;3.45;;;2.72;;
7116;SDS011;3600;48.568;7.870;2024-02-21T11:54:45;6.35;;;3.22;;
7116;SDS011;3600;48.568;7.870;2024-02-21T11:57:12;4.07;;;2.92;;
7116;SDS011;3600;48.568;7.870;2024-02-21T11:59:39;5.90;;;2.60;;
7116;SDS011;3600;48.568;7.870;2024-02-21T12:02:07;5.38;;;2.40;;
7116;SDS011;3600;48.568;7.870;2024-02-21T12:04:35;4.45;;;2.72;;
7116;SDS011;3600;48.568;7.870;2024-02-21T12:07:03;2.35;;;2.05;;
7116;SDS011;3600;48.568;7.870;2024-02-21T12:09:31;4.78;;;2.83;;
7116;SDS011;3600;48.568;7.870;2024-02-21T12:11:58;3.92;;;2.55;;
7116;SDS011;3600;48.568;7.870;2024-02-21T12:14:27;4.78;;;2.50;;
7116;SDS011;3600;48.568;7.870;2024-02-21T12:17:05;8.07;;;3.15;;
7116;SDS011;3600;48.568;7.870;2024-02-21T12:19:33;8.10;;;3.28;;
7116;SDS011;3600;48.568;7.870;2024-02-21T12:22:18;3.70;;;2.60;;
7116;SDS011;3600;48.568;7.870;2024-02-21T12:24:46;4.10;;;2.40;;
7116;SDS011;3600;48.568;7.870;2024-02-21T12:27:14;6.78;;;2.75;;
7116;SDS011;3600;48.568;7.870;2024-02-21T12:29:41;4.07;;;2.42;;
7116;SDS011;3600;48.568;7.870;2024-02-21T12:32:08;5.65;;;2.72;;
7116;SDS011;3600;48.568;7.870;2024-02-21T12:34:47;6.72;;;2.63;;
7116;SDS011;3600;48.568;7.870;2024-02-21T12:37:21;5.97;;;2.60;;
7116;SDS011;3600;48.568;7.870;2024-02-21T12:39:50;4.70;;;2.75;;
7116;SDS011;3600;48.568;7.870;2024-02-21T12:42:17;5.00;;;2.50;;
7116;SDS011;3600;48.568;7.870;2024-02-21T12:44:44;3.50;;;2.60;;
7116;SDS011;3600;48.568;7.870;2024-02-21T12:47:12;6.65;;;3.58;;
7116;SDS011;3600;48.568;7.870;2024-02-21T12:49:39;7.85;;;2.95;;
7116;SDS011;3600;48.568;7.870;2024-02-21T12:52:11;6.03;;;3.15;;
7116;SDS011;3600;48.568;7.870;2024-02-21T12:54:38;4.70;;;2.70;;
7116;SDS011;3600;48.568;7.870;2024-02-21T12:57:04;6.07;;;2.70;;
7116;SDS011;3600;48.568;7.870;2024-02-21T12:59:32;4.20;;;2.45;;
7116;SDS011;3600;48.568;7.870;2024-02-21T13:01:58;3.83;;;2.75;;
7116;SDS011;3600;48.568;7.870;2024-02-21T13:04:40;5.85;;;3.13;;
7116;SDS011;3600;48.568;7.870;2024-02-21T13:10:53;5.65;;;2.83;;
7116;SDS011;3600;48.568;7.870;2024-02-21T13:13:35;7.13;;;3.50;;
7116;SDS011;3600;48.568;7.870;2024-02-21T13:16:02;5.68;;;3.28;;
7116;SDS011;3600;48.568;7.870;2024-02-21T13:18:38;4.28;;;2.65;;
7116;SDS011;3600;48.568;7.870;2024-02-21T13:21:06;7.65;;;3.15;;
7116;SDS011;3600;48.568;7.870;2024-02-21T13:23:33;4.80;;;2.80;;
7116;SDS011;3600;48.568;7.870;2024-02-21T13:26:00;4.40;;;3.03;;
7116;SDS011;3600;48.568;7.870;2024-02-21T13:28:27;3.95;;;2.53;;
7116;SDS011;3600;48.568;7.870;2024-02-21T13:30:54;7.40;;;3.22;;
7116;SDS011;3600;48.568;7.870;2024-02-21T13:33:42;5.43;;;3.17;;
7116;SDS011;3600;48.568;7.870;2024-02-21T13:36:08;4.78;;;3.20;;
7116;SDS011;3600;48.568;7.870;2024-02-21T13:38:36;5.22;;;3.15;;
7116;SDS011;3600;48.568;7.870;2024-02-21T13:41:05;5.63;;;3.13;;
7116;SDS011;3600;48.568;7.870;2024-02-21T13:43:33;6.00;;;3.13;;
7116;SDS011;3600;48.568;7.870;2024-02-21T13:46:00;5.40;;;2.75;;
7116;SDS011;3600;48.568;7.870;2024-02-21T13:48:35;9.07;;;2.90;;
7116;SDS011;3600;48.568;7.870;2024-02-21T13:51:03;4.25;;;3.00;;
7116;SDS011;3600;48.568;7.870;2024-02-21T13:53:30;4.82;;;2.80;;
7116;SDS011;3600;48.568;7.870;2024-02-21T13:55:57;5.35;;;2.90;;
7116;SDS011;3600;48.568;7.870;2024-02-21T13:58:24;7.13;;;3.90;;
7116;SDS011;3600;48.568;7.870;2024-02-21T14:00:52;4.55;;;3.15;;
7116;SDS011;3600;48.568;7.870;2024-02-21T14:03:28;4.70;;;3.20;;
7116;SDS011;3600;48.568;7.870;2024-02-21T14:05:57;6.80;;;3.85;;
7116;SDS011;3600;48.568;7.870;2024-02-21T14:08:38;5.78;;;2.65;;
7116;SDS011;3600;48.568;7.870;2024-02-21T14:11:11;3.70;;;3.13;;
7116;SDS011;3600;48.568;7.870;2024-02-21T14:13:40;5.55;;;3.10;;
7116;SDS011;3600;48.568;7.870;2024-02-21T14:16:10;4.03;;;2.65;;
7116;SDS011;3600;48.568;7.870;2024-02-21T14:18:40;5.28;;;2.70;;
7116;SDS011;3600;48.568;7.870;2024-02-21T14:21:10;3.92;;;2.80;;
7116;SDS011;3600;48.568;7.870;2024-02-21T14:23:37;3.92;;;2.33;;
7116;SDS011;3600;48.568;7.870;2024-02-21T14:26:05;9.55;;;3.05;;
7116;SDS011;3600;48.568;7.870;2024-02-21T14:28:32;4.10;;;2.20;;
7116;SDS011;3600;48.568;7.870;2024-02-21T14:31:02;5.65;;;2.20;;
7116;SDS011;3600;48.568;7.870;2024-02-21T14:33:32;5.18;;;2.15;;
7116;SDS011;3600;48.568;7.870;2024-02-21T14:35:59;6.47;;;2.67;;
7116;SDS011;3600;48.568;7.870;2024-02-21T14:38:27;3.40;;;2.30;;
7116;SDS011;3600;48.568;7.870;2024-02-21T14:40:54;3.33;;;2.10;;
7116;SDS011;3600;48.568;7.870;2024-02-21T14:43:21;4.70;;;1.90;;
7116;SDS011;3600;48.568;7.870;2024-02-21T14:45:49;4.35;;;2.10;;
7116;SDS011;3600;48.568;7.870;2024-02-21T14:48:16;4.68;;;2.28;;
7116;SDS011;3600;48.568;7.870;2024-02-21T14:50:43;2.92;;;1.90;;
7116;SDS011;3600;48.568;7.870;2024-02-21T14:53:10;4.03;;;2.17;;
7116;SDS011;3600;48.568;7.870;2024-02-21T14:55:37;6.18;;;2.55;;
7116;SDS011;3600;48.568;7.870;2024-02-21T14:58:08;4.22;;;1.77;;
7116;SDS011;3600;48.568;7.870;2024-02-21T15:00:35;9.00;;;2.40;;
7116;SDS011;3600;48.568;7.870;2024-02-21T15:03:02;3.63;;;2.47;;
7116;SDS011;3600;48.568;7.870;2024-02-21T15:05:37;5.28;;;2.63;;
7116;SDS011;3600;48.568;7.870;2024-02-21T15:08:14;7.00;;;2.22;;
7116;SDS011;3600;48.568;7.870;2024-02-21T15:10:49;6.80;;;2.90;;
7116;SDS011;3600;48.568;7.870;2024-02-21T15:13:17;3.38;;;2.22;;
7116;SDS011;3600;48.568;7.870;2024-02-21T15:15:43;3.80;;;2.28;;
7116;SDS011;3600;48.568;7.870;2024-02-21T15:18:10;5.07;;;2.50;;
7116;SDS011;3600;48.568;7.870;2024-02-21T15:20:37;4.32;;;2.55;;
7116;SDS011;3600;48.568;7.870;2024-02-21T15:23:05;2.25;;;2.05;;
7116;SDS011;3600;48.568;7.870;2024-02-21T15:25:32;5.13;;;2.00;;
7116;SDS011;3600;48.568;7.870;2024-02-21T15:28:00;6.28;;;1.98;;
7116;SDS011;3600;48.568;7.870;2024-02-21T15:30:29;3.38;;;2.20;;
7116;SDS011;3600;48.568;7.870;2024-02-21T15:32:58;2.50;;;2.15;;
7116;SDS011;3600;48.568;7.870;2024-02-21T15:35:29;4.82;;;2.20;;
7116;SDS011;3600;48.568;7.870;2024-02-21T15:37:58;2.53;;;2.10;;
7116;SDS011;3600;48.568;7.870;2024-02-21T15:40:25;5.50;;;2.20;;